sim
Sign-in with your pilot id or email,
or register
Callsign
Passwort

Schedule Details

Flight Number: DLH2049
Departure: Berlin Tegel Airport (EDDT) at 19:00
Arrival: Munich Airport (EDDM) at 20:10
Route: Lufthansa Passenger Schedule. Enter filed route here before submitting Pirep.

Weather Information
Getting current METAR information for EDDT 231450Z 26007KT 240V300 CAVOK 25/10 Q1004 NOSIG
Getting current METAR information for EDDM 231450Z 24007KT 9999 FEW043 19/15 Q1009 NOSIG

Schedule Frequency

Route Map